PWSweather.com
Personal Weather Stations
Station Observations
KGAMARIE64
Piedmont Bend, Marietta, GA 30062

Piedmont BendMarietta, GA 30062

Lat: 33.995327, Lon: -84.491958

Elevation: 1125

Station Type: Davis Vantage Pro2 (Cabled)

https://www.eastcobbweather.com

Latest ConditionsUpdated 3:30:02 PM EDT Tuesday, Sep 25, 2018
Currently Today's Max Today's Min Today's Average
Temperature 83.5°F28.6°C 83.5°F28.6°C 72.7°F22.6°C 75.4°F24.1°C
Dew Point 70.9°F21.6°C 72.6°F22.6°C 67.9°F19.9°C 69.4°F20.8°C
Winds Calm Calm 1.2 mph -1.9 kmh - - 0.0 mph 0.0 kmh
Wind Gusts -- 2.3 mph3.7 kmh - -
Humidity 66% 92% 66% 82%
Pressure 31.28 in1059.3 mb 31.38 in1062.6 mb 31.28 in1059.3 mb -
Hour Temp Dew Point Humidity Winds Wind Gusts Pressure Precip Precip Rate Daily Precip Total
03:30 PM 83.5°F28.6°C 70.9°F21.6°C 66% Calm Calm -- 31.28 in1059.3 mb - 0.00 in0.0 mm 0.00 in0.0 mm
03:00 PM 83.1°F28.4°C 72.3°F22.4°C 70% Calm Calm 1.2 mph1.9 kmh 31.29 in1059.6 mb - 0.00 in0.0 mm 0.00 in0.0 mm
02:30 PM 82.6°F28.1°C 71.8°F22.1°C 70% Calm Calm 1.2 mph1.9 kmh 31.31 in1060.3 mb - 0.00 in0.0 mm 0.00 in0.0 mm
02:00 PM 81.0°F27.2°C 71.5°F21.9°C 73% Calm Calm 1.2 mph1.9 kmh 31.32 in1060.6 mb - 0.00 in0.0 mm 0.00 in0.0 mm
01:30 PM 81.3°F27.4°C 72.6°F22.6°C 75% 1.2 mph NW1.9 kmh NW 2.3 mph3.7 kmh 31.34 in1061.3 mb - 0.00 in0.0 mm 0.00 in0.0 mm
01:00 PM 79.6°F26.4°C 71.7°F22.1°C 77% Calm Calm 1.2 mph1.9 kmh 31.35 in1061.6 mb - 0.00 in0.0 mm 0.00 in0.0 mm
12:30 PM 78.9°F26.1°C 71.8°F22.1°C 79% Calm Calm 1.2 mph1.9 kmh 31.36 in1062.0 mb - 0.00 in0.0 mm 0.00 in0.0 mm
12:00 PM 77.2°F25.1°C 71.7°F22.1°C 83% Calm Calm -- 31.36 in1062.0 mb - 0.00 in0.0 mm 0.00 in0.0 mm
11:30 AM 76.2°F24.6°C 72.4°F22.4°C 88% Calm Calm -- 31.37 in1062.3 mb - 0.00 in0.0 mm 0.00 in0.0 mm
11:00 AM 74.9°F23.8°C 72.5°F22.5°C 92% Calm Calm -- 31.37 in1062.3 mb - 0.00 in0.0 mm 0.00 in0.0 mm
10:30 AM 73.4°F23.0°C 68.3°F20.2°C 84% Calm Calm -- 31.38 in1062.6 mb - 0.00 in0.0 mm 0.00 in0.0 mm
10:00 AM 73.4°F23.0°C 68.3°F20.2°C 84% Calm Calm -- 31.37 in1062.3 mb - 0.00 in0.0 mm 0.00 in0.0 mm
09:30 AM 73.4°F23.0°C 68.3°F20.2°C 84% Calm Calm -- 31.37 in1062.3 mb - 0.00 in0.0 mm 0.00 in0.0 mm
09:00 AM 73.4°F23.0°C 68.3°F20.2°C 84% Calm Calm -- 31.36 in1062.0 mb - 0.00 in0.0 mm 0.00 in0.0 mm
08:30 AM 73.4°F23.0°C 68.3°F20.2°C 84% Calm Calm -- 31.36 in1062.0 mb - 0.00 in0.0 mm 0.00 in0.0 mm
08:00 AM 73.4°F23.0°C 68.3°F20.2°C 84% Calm Calm -- 31.36 in1062.0 mb - 0.00 in0.0 mm 0.00 in0.0 mm
07:30 AM 73.4°F23.0°C 68.3°F20.2°C 84% Calm Calm -- 31.35 in1061.6 mb - 0.00 in0.0 mm 0.00 in0.0 mm
07:00 AM 73.4°F23.0°C 68.3°F20.2°C 84% Calm Calm -- 31.34 in1061.3 mb - 0.00 in0.0 mm 0.00 in0.0 mm
06:30 AM 73.4°F23.0°C 68.3°F20.2°C 84% Calm Calm -- 31.34 in1061.3 mb - 0.00 in0.0 mm 0.00 in0.0 mm
06:00 AM 73.4°F23.0°C 68.3°F20.2°C 84% Calm Calm -- 31.33 in1061.0 mb - 0.00 in0.0 mm 0.00 in0.0 mm
05:30 AM 73.4°F23.0°C 68.3°F20.2°C 84% Calm Calm -- 31.33 in1061.0 mb - 0.00 in0.0 mm 0.00 in0.0 mm
05:00 AM 73.4°F23.0°C 68.3°F20.2°C 84% Calm Calm -- 31.32 in1060.6 mb - 0.00 in0.0 mm 0.00 in0.0 mm
04:30 AM 73.4°F23.0°C 68.3°F20.2°C 84% Calm Calm -- 31.32 in1060.6 mb - 0.00 in0.0 mm 0.00 in0.0 mm
04:00 AM 73.4°F23.0°C 68.3°F20.2°C 84% Calm Calm -- 31.32 in1060.6 mb - 0.00 in0.0 mm 0.00 in0.0 mm
03:30 AM 73.4°F23.0°C 68.3°F20.2°C 84% Calm Calm -- 31.32 in1060.6 mb - 0.00 in0.0 mm 0.00 in0.0 mm
03:00 AM 73.4°F23.0°C 68.3°F20.2°C 84% Calm Calm -- 31.34 in1061.3 mb - 0.00 in0.0 mm 0.00 in0.0 mm
02:30 AM 73.4°F23.0°C 68.3°F20.2°C 84% Calm Calm -- 31.33 in1061.0 mb - 0.00 in0.0 mm 0.00 in0.0 mm
02:00 AM 73.4°F23.0°C 68.3°F20.2°C 84% Calm Calm -- 31.34 in1061.3 mb - 0.00 in0.0 mm 0.00 in0.0 mm
01:30 AM 73.4°F23.0°C 68.3°F20.2°C 84% Calm Calm -- 31.34 in1061.3 mb - 0.00 in0.0 mm 0.00 in0.0 mm
01:00 AM 72.7°F22.6°C 67.9°F19.9°C 85% Calm Calm -- 31.35 in1061.6 mb - 0.00 in0.0 mm 0.00 in0.0 mm
12:30 AM 73.0°F22.8°C 67.9°F19.9°C 84% Calm Calm 1.2 mph1.9 kmh 31.36 in1062.0 mb - 0.00 in0.0 mm 0.00 in0.0 mm
12:00 AM 73.4°F23.0°C 68.2°F20.1°C 84% Calm Calm 1.2 mph1.9 kmh 31.36 in1062.0 mb - 0.00 in0.0 mm 0.00 in0.0 mm